Time;durP1;ratioP1;P1;durP2;ratioP2;P2;SDS_P1;SDS_P2;PMS_P1;PMS_P2;Temp;Humidity;BMP_temperature;BMP_pressure;BME280_temperature;BME280_humidity;BME280_pressure;Samples;Min_cycle;Max_cycle;Signal;HPM_P1;HPM_P2
2023/06/28 00:00:21;;;;;;;2.53;1.20;;;;;24.30;100786.00;;;;2069472;28;20214;-67
2023/06/28 00:01:21;;;;;;;2.70;1.20;;;;;24.30;100786.00;;;;2054264;28;20231;-67
2023/06/28 00:02:22;;;;;;;2.30;1.17;;;;;24.30;100791.00;;;;2061198;28;20246;-67
2023/06/28 00:03:22;;;;;;;2.47;1.23;;;;;24.40;100785.00;;;;2067615;28;20245;-67
2023/06/28 00:04:22;;;;;;;3.60;1.17;;;;;24.30;100788.00;;;;2056359;28;20219;-67
2023/06/28 00:05:23;;;;;;;2.33;1.00;;;;;24.30;100788.00;;;;2060926;28;20281;-67
2023/06/28 00:06:23;;;;;;;2.20;1.00;;;;;24.30;100784.00;;;;2048049;28;20223;-67
2023/06/28 00:07:23;;;;;;;3.43;1.17;;;;;24.30;100788.00;;;;2056866;28;20219;-67
2023/06/28 00:08:24;;;;;;;3.90;1.20;;;;;24.30;100784.00;;;;2068780;28;20221;-67
2023/06/28 00:09:24;;;;;;;1.53;0.93;;;;;24.30;100790.00;;;;2057246;28;20219;-67
2023/06/28 00:10:25;;;;;;;3.93;1.00;;;;;24.30;100790.00;;;;2062801;28;20224;-67
2023/06/28 00:11:26;;;;;;;2.50;1.03;;;;;24.30;100788.00;;;;2053385;28;20265;-67
2023/06/28 00:12:28;;;;;;;2.13;1.30;;;;;24.30;100788.00;;;;2059516;28;20222;-67
2023/06/28 00:13:28;;;;;;;2.22;1.10;;;;;24.30;100793.00;;;;2061738;28;20679;-67
2023/06/28 00:14:29;;;;;;;3.00;1.30;;;;;24.30;100788.00;;;;2056473;28;20211;-67
2023/06/28 00:15:29;;;;;;;2.43;1.30;;;;;24.30;100788.00;;;;2055667;28;20219;-67
2023/06/28 00:16:29;;;;;;;4.57;1.70;;;;;24.30;100791.00;;;;2058449;28;20214;-67
2023/06/28 00:17:30;;;;;;;1.10;0.80;;;;;24.30;100792.00;;;;2062538;28;20219;-67
2023/06/28 00:18:32;;;;;;;2.57;1.00;;;;;24.30;100792.00;;;;2064118;28;20245;-67
2023/06/28 00:19:33;;;;;;;2.08;0.90;;;;;24.30;100794.00;;;;2062160;28;20207;-67
2023/06/28 00:20:34;;;;;;;3.20;1.20;;;;;24.30;100792.00;;;;2063186;28;20245;-67
2023/06/28 00:21:34;;;;;;;1.27;1.10;;;;;24.30;100797.00;;;;2055806;28;20302;-67
2023/06/28 00:22:35;;;;;;;1.70;1.20;;;;;24.30;100794.00;;;;2058250;28;20223;-67
2023/06/28 00:23:35;;;;;;;2.33;1.40;;;;;24.30;100795.00;;;;2062911;28;20702;-67
2023/06/28 00:24:35;;;;;;;1.97;1.10;;;;;24.30;100787.00;;;;2066493;28;20214;-67
2023/06/28 00:25:36;;;;;;;2.00;1.00;;;;;24.30;100801.00;;;;2062393;28;20242;-67
2023/06/28 00:26:36;;;;;;;1.40;0.97;;;;;24.30;100795.00;;;;2051789;28;20238;-67
2023/06/28 00:27:36;;;;;;;3.57;1.00;;;;;24.30;100792.00;;;;2058714;28;20210;-67
2023/06/28 00:28:37;;;;;;;1.77;1.07;;;;;24.30;100793.00;;;;2056356;28;20218;-67
2023/06/28 00:29:37;;;;;;;1.63;1.27;;;;;24.30;100791.00;;;;2066178;28;20214;-67
2023/06/28 00:30:37;;;;;;;1.87;1.13;;;;;24.30;100798.00;;;;2063951;28;20217;-67
2023/06/28 00:31:38;;;;;;;2.33;1.10;;;;;24.30;100792.00;;;;2051685;28;20300;-67
2023/06/28 00:32:38;;;;;;;2.03;1.20;;;;;24.30;100793.00;;;;2059565;28;20206;-67
2023/06/28 00:33:39;;;;;;;2.40;1.10;;;;;24.30;100791.00;;;;2062726;28;20269;-67
2023/06/28 00:34:40;;;;;;;2.00;1.02;;;;;24.30;100790.00;;;;2066950;28;20240;-67
2023/06/28 00:35:40;;;;;;;4.10;1.33;;;;;24.30;100792.00;;;;2049258;28;20610;-67
2023/06/28 00:36:41;;;;;;;1.40;0.90;;;;;24.30;100791.00;;;;2045153;28;21029;-67
2023/06/28 00:37:41;;;;;;;2.90;1.30;;;;;24.30;100791.00;;;;2066832;28;20214;-67
2023/06/28 00:38:42;;;;;;;2.17;1.37;;;;;24.30;100792.00;;;;2060894;28;20215;-67
2023/06/28 00:39:42;;;;;;;1.80;1.10;;;;;24.30;100791.00;;;;2060647;28;20594;-67
2023/06/28 00:40:42;;;;;;;1.70;1.00;;;;;24.30;100789.00;;;;2058298;28;20214;-67
2023/06/28 00:41:43;;;;;;;3.70;1.40;;;;;24.30;100795.00;;;;2045826;28;20218;-67
2023/06/28 00:42:43;;;;;;;1.73;1.10;;;;;24.10;100788.00;;;;2065073;28;20248;-67
2023/06/28 00:43:43;;;;;;;2.17;1.00;;;;;24.30;100791.00;;;;2064771;28;20289;-67
2023/06/28 00:44:43;;;;;;;3.50;1.43;;;;;24.30;100792.00;;;;2068408;28;20268;-67
2023/06/28 00:45:44;;;;;;;1.47;1.03;;;;;24.30;100788.00;;;;2065187;28;20210;-67
2023/06/28 00:46:45;;;;;;;2.07;1.03;;;;;24.30;100792.00;;;;2045000;28;20243;-67
2023/06/28 00:47:45;;;;;;;1.88;1.15;;;;;24.30;100792.00;;;;2053319;28;20207;-67
2023/06/28 00:48:45;;;;;;;1.93;1.20;;;;;24.30;100795.00;;;;2046633;28;20265;-67
2023/06/28 00:49:46;;;;;;;1.93;1.10;;;;;24.30;100793.00;;;;2055764;28;20200;-67
2023/06/28 00:50:46;;;;;;;2.00;1.00;;;;;24.40;100789.00;;;;2053992;28;20234;-67
2023/06/28 00:51:47;;;;;;;1.90;1.40;;;;;24.30;100796.00;;;;2039721;28;20235;-67
2023/06/28 00:52:47;;;;;;;2.00;1.30;;;;;24.30;100799.00;;;;2054148;28;20203;-67
2023/06/28 00:53:47;;;;;;;2.90;1.20;;;;;24.30;100799.00;;;;2053781;28;20209;-67
2023/06/28 00:54:48;;;;;;;2.00;1.10;;;;;24.30;100802.00;;;;2052709;28;20899;-67
2023/06/28 00:55:48;;;;;;;4.20;1.47;;;;;24.30;100806.00;;;;2052169;28;20582;-67
2023/06/28 00:56:48;;;;;;;2.27;1.10;;;;;24.30;100805.00;;;;2047670;28;20207;-67
2023/06/28 00:57:48;;;;;;;2.70;1.20;;;;;24.30;100803.00;;;;2062696;28;20274;-67
2023/06/28 00:58:49;;;;;;;2.53;1.17;;;;;24.30;100794.00;;;;2061173;28;20281;-67
2023/06/28 00:59:51;;;;;;;4.65;0.82;;;;;24.30;100796.00;;;;2063248;28;20207;-67
2023/06/28 01:00:51;;;;;;;2.05;0.85;;;;;24.30;100803.00;;;;2055707;28;20215;-67
2023/06/28 01:01:51;;;;;;;2.13;1.30;;;;;24.30;100799.00;;;;2045693;28;20981;-67
2023/06/28 01:02:52;;;;;;;2.20;1.00;;;;;24.30;100795.00;;;;2062579;28;20246;-67
2023/06/28 01:03:53;;;;;;;1.97;1.03;;;;;24.30;100795.00;;;;2064285;28;20218;-67
2023/06/28 01:04:57;;;;;;;1.67;0.90;;;;;24.30;100795.00;;;;2066630;28;20246;-67
2023/06/28 01:05:58;;;;;;;2.10;1.30;;;;;24.30;100794.00;;;;2041178;28;20515;-67
2023/06/28 01:06:59;;;;;;;2.22;1.30;;;;;24.30;100791.00;;;;2042499;28;20290;-67
2023/06/28 01:08:00;;;;;;;2.00;1.10;;;;;24.30;100794.00;;;;2043607;28;20287;-67
2023/06/28 01:09:00;;;;;;;5.70;1.20;;;;;24.30;100797.00;;;;2046235;28;20475;-67
2023/06/28 01:10:00;;;;;;;1.60;1.07;;;;;24.30;100798.00;;;;2038658;28;20227;-67
2023/06/28 01:11:01;;;;;;;3.10;1.30;;;;;24.30;100794.00;;;;2037070;28;20256;-67
2023/06/28 01:12:01;;;;;;;3.10;1.07;;;;;24.30;100776.00;;;;2051071;28;20231;-67
2023/06/28 01:13:01;;;;;;;1.80;1.27;;;;;24.40;100801.00;;;;2041263;29;20235;-67
2023/06/28 01:14:02;;;;;;;1.67;1.30;;;;;24.30;100799.00;;;;2049532;28;20223;-67
2023/06/28 01:15:03;;;;;;;3.33;1.50;;;;;24.30;100795.00;;;;2054993;28;20278;-67
2023/06/28 01:16:05;;;;;;;3.75;1.27;;;;;24.40;100770.00;;;;2033806;28;20213;-67
2023/06/28 01:17:05;;;;;;;3.10;1.05;;;;;24.30;100799.00;;;;2044054;28;20217;-67
2023/06/28 01:18:05;;;;;;;3.80;1.80;;;;;24.40;100802.00;;;;2055915;28;20229;-67
2023/06/28 01:19:06;;;;;;;2.27;1.00;;;;;24.40;100782.00;;;;2062475;28;20602;-67
2023/06/28 01:20:07;;;;;;;3.20;1.17;;;;;24.40;100796.00;;;;2054490;28;20664;-67
2023/06/28 01:21:07;;;;;;;2.00;1.10;;;;;24.50;100801.00;;;;2041518;28;20278;-67
2023/06/28 01:22:09;;;;;;;2.10;1.00;;;;;24.50;100801.00;;;;2045025;28;21045;-67
2023/06/28 01:23:09;;;;;;;2.00;1.20;;;;;24.50;100797.00;;;;2038940;28;20213;-68
2023/06/28 01:24:10;;;;;;;2.13;1.10;;;;;24.50;100797.00;;;;2045608;28;20220;-68
2023/06/28 01:25:11;;;;;;;3.83;1.20;;;;;24.50;100794.00;;;;2047781;28;20239;-68
2023/06/28 01:26:11;;;;;;;3.10;1.40;;;;;24.50;100800.00;;;;2047017;28;20319;-68
2023/06/28 01:27:13;;;;;;;3.10;1.33;;;;;24.50;100807.00;;;;2056008;28;20223;-68
2023/06/28 01:28:13;;;;;;;3.92;1.20;;;;;24.50;100804.00;;;;2052266;28;20211;-68
2023/06/28 01:29:14;;;;;;;2.90;1.27;;;;;24.50;100804.00;;;;2052628;28;20216;-68
2023/06/28 01:30:17;;;;;;;2.30;1.10;;;;;24.50;100798.00;;;;2041849;29;20276;-68
2023/06/28 01:31:17;;;;;;;2.95;1.20;;;;;24.50;100799.00;;;;2043813;28;20720;-68
2023/06/28 01:32:18;;;;;;;2.70;1.10;;;;;24.50;100803.00;;;;2063909;28;20209;-67
2023/06/28 01:33:18;;;;;;;2.33;1.00;;;;;24.50;100802.00;;;;2052435;28;20282;-67
2023/06/28 01:34:19;;;;;;;3.07;1.27;;;;;24.50;100802.00;;;;2060405;28;20381;-67
2023/06/28 01:35:19;;;;;;;2.40;1.20;;;;;24.50;100801.00;;;;2059851;28;20216;-67
2023/06/28 01:36:19;;;;;;;3.10;1.47;;;;;24.50;100798.00;;;;2049198;28;20242;-67
2023/06/28 01:37:20;;;;;;;3.30;1.23;;;;;24.40;100801.00;;;;2066706;28;20579;-67
2023/06/28 01:38:21;;;;;;;3.63;1.13;;;;;24.40;100794.00;;;;2042362;28;20695;-67
2023/06/28 01:39:21;;;;;;;2.03;1.40;;;;;24.40;100800.00;;;;2047184;28;20460;-67
2023/06/28 01:40:21;;;;;;;2.20;1.33;;;;;24.40;100776.00;;;;2062839;28;20215;-67
2023/06/28 01:41:23;;;;;;;4.50;1.27;;;;;24.50;100812.00;;;;2031104;28;20244;-67
2023/06/28 01:42:23;;;;;;;3.63;1.40;;;;;24.40;100773.00;;;;2044081;28;20293;-69
2023/06/28 01:43:24;;;;;;;1.83;1.27;;;;;24.50;100781.00;;;;2056615;28;20255;-67
2023/06/28 01:44:24;;;;;;;2.33;1.20;;;;;24.50;100805.00;;;;2047507;29;20247;-68
2023/06/28 01:45:24;;;;;;;3.50;1.20;;;;;24.50;100805.00;;;;2039479;29;20817;-67
2023/06/28 01:46:25;;;;;;;8.33;1.30;;;;;24.50;100804.00;;;;2045873;28;20310;-67
2023/06/28 01:47:25;;;;;;;3.57;1.20;;;;;24.40;100798.00;;;;2053615;28;20269;-67
2023/06/28 01:48:25;;;;;;;2.63;1.23;;;;;24.40;100804.00;;;;2056736;28;20640;-67
2023/06/28 01:49:26;;;;;;;6.43;1.40;;;;;24.40;100806.00;;;;2034124;29;20631;-67
2023/06/28 01:50:26;;;;;;;3.57;1.30;;;;;24.40;100810.00;;;;2040769;28;20255;-67
2023/06/28 01:51:27;;;;;;;5.73;1.50;;;;;24.40;100804.00;;;;2038584;28;20220;-67
2023/06/28 01:52:27;;;;;;;2.57;1.27;;;;;24.40;100804.00;;;;2063566;28;20215;-67
2023/06/28 01:53:28;;;;;;;5.93;1.40;;;;;24.40;100817.00;;;;2063816;28;20215;-67
2023/06/28 01:54:29;;;;;;;2.70;1.37;;;;;24.40;100810.00;;;;2056181;28;20226;-67
2023/06/28 01:55:29;;;;;;;2.50;1.52;;;;;24.40;100814.00;;;;2070320;28;20220;-67
2023/06/28 01:56:29;;;;;;;3.63;1.30;;;;;24.50;100809.00;;;;2058718;28;20728;-67
2023/06/28 01:57:30;;;;;;;2.70;1.00;;;;;24.50;100808.00;;;;2063633;28;20211;-67
2023/06/28 01:58:30;;;;;;;3.53;1.60;;;;;24.40;100823.00;;;;2055814;28;20219;-67
2023/06/28 01:59:31;;;;;;;3.10;1.40;;;;;24.40;100807.00;;;;2063039;28;20218;-67
2023/06/28 02:00:31;;;;;;;1.87;1.10;;;;;24.40;100812.00;;;;2062226;28;20214;-67
2023/06/28 02:01:31;;;;;;;3.20;1.47;;;;;24.40;100796.00;;;;2054498;28;20241;-67
2023/06/28 02:02:31;;;;;;;2.20;1.20;;;;;24.40;100816.00;;;;2061487;28;20238;-67
2023/06/28 02:03:32;;;;;;;2.00;1.27;;;;;24.40;100818.00;;;;2056130;28;20243;-67
2023/06/28 02:04:32;;;;;;;1.80;1.13;;;;;24.40;100815.00;;;;2055669;28;20318;-67
2023/06/28 02:05:32;;;;;;;3.93;1.80;;;;;24.40;100812.00;;;;2057739;28;20223;-67
2023/06/28 02:06:33;;;;;;;3.20;1.20;;;;;24.40;100811.00;;;;2046377;28;20697;-67
2023/06/28 02:07:33;;;;;;;1.70;1.10;;;;;24.40;100815.00;;;;2062898;28;20306;-67
2023/06/28 02:08:34;;;;;;;2.50;1.17;;;;;24.40;100811.00;;;;2058541;28;20694;-67
2023/06/28 02:09:34;;;;;;;3.57;1.43;;;;;24.40;100794.00;;;;2056886;28;20219;-67
2023/06/28 02:10:35;;;;;;;3.50;1.20;;;;;24.40;100818.00;;;;2061731;28;20230;-67
2023/06/28 02:11:35;;;;;;;3.83;1.30;;;;;24.40;100819.00;;;;2046910;28;20220;-67
2023/06/28 02:12:35;;;;;;;2.50;1.50;;;;;24.40;100817.00;;;;2063475;28;20213;-67
2023/06/28 02:13:36;;;;;;;3.30;1.17;;;;;24.40;100813.00;;;;2067499;28;20210;-67
2023/06/28 02:14:39;;;;;;;4.70;1.40;;;;;24.40;100818.00;;;;2060464;28;20276;-67
2023/06/28 02:15:41;;;;;;;6.97;1.52;;;;;24.40;100817.00;;;;2069363;28;20230;-67
2023/06/28 02:16:41;;;;;;;1.80;1.20;;;;;24.40;100813.00;;;;2048380;28;20203;-67
2023/06/28 02:17:42;;;;;;;5.60;1.23;;;;;24.40;100815.00;;;;2055707;28;20219;-67
2023/06/28 02:18:45;;;;;;;1.93;1.00;;;;;24.40;100794.00;;;;2059872;28;20315;-67
2023/06/28 02:19:45;;;;;;;2.55;1.30;;;;;24.40;100811.00;;;;2063740;28;20667;-67
2023/06/28 02:20:46;;;;;;;3.80;1.17;;;;;24.40;100819.00;;;;2070169;28;20249;-67
2023/06/28 02:21:46;;;;;;;5.53;1.17;;;;;24.30;100815.00;;;;2045078;28;20215;-67
2023/06/28 02:22:47;;;;;;;1.47;0.73;;;;;24.40;100809.00;;;;2047756;28;20235;-67
2023/06/28 02:23:47;;;;;;;3.70;1.10;;;;;24.30;100801.00;;;;2067482;28;20912;-67
2023/06/28 02:24:47;;;;;;;2.93;1.37;;;;;24.30;100810.00;;;;2064298;28;20238;-67
2023/06/28 02:25:48;;;;;;;3.67;1.13;;;;;24.30;100799.00;;;;2055143;28;20306;-67
2023/06/28 02:26:48;;;;;;;2.03;1.00;;;;;24.30;100813.00;;;;2045423;28;20238;-67
2023/06/28 02:27:48;;;;;;;1.97;1.03;;;;;24.30;100811.00;;;;2063392;28;20215;-67
2023/06/28 02:28:49;;;;;;;1.77;1.07;;;;;24.30;100783.00;;;;2056294;28;20333;-67
2023/06/28 02:29:49;;;;;;;3.00;0.90;;;;;24.30;100814.00;;;;2057003;28;20212;-67
2023/06/28 02:30:49;;;;;;;2.67;1.40;;;;;24.30;100810.00;;;;2054911;28;20484;-67
2023/06/28 02:31:50;;;;;;;2.07;1.10;;;;;24.30;100812.00;;;;2045133;28;20303;-67
2023/06/28 02:32:50;;;;;;;3.90;1.17;;;;;24.30;100810.00;;;;2064193;28;20220;-67
2023/06/28 02:33:50;;;;;;;1.50;1.00;;;;;24.30;100799.00;;;;2065589;28;20243;-67
2023/06/28 02:34:51;;;;;;;3.97;1.47;;;;;24.30;100789.00;;;;2063854;28;20246;-67
2023/06/28 02:35:51;;;;;;;3.47;1.50;;;;;24.30;100802.00;;;;2062240;28;20325;-67
2023/06/28 02:36:52;;;;;;;2.87;1.13;;;;;24.30;100798.00;;;;2050143;28;20303;-67
2023/06/28 02:37:52;;;;;;;2.40;1.30;;;;;24.30;100798.00;;;;2055899;28;20230;-67
2023/06/28 02:38:53;;;;;;;1.90;1.20;;;;;24.30;100798.00;;;;2061007;28;20226;-67
2023/06/28 02:39:53;;;;;;;2.20;1.53;;;;;24.30;100781.00;;;;2062118;28;20223;-67
2023/06/28 02:40:53;;;;;;;2.40;1.23;;;;;24.30;100790.00;;;;2053214;28;20232;-67
2023/06/28 02:41:54;;;;;;;3.23;1.40;;;;;24.30;100791.00;;;;2047447;28;20265;-67
2023/06/28 02:42:54;;;;;;;2.03;1.00;;;;;24.30;100790.00;;;;2060084;28;20215;-67
2023/06/28 02:43:54;;;;;;;1.77;1.23;;;;;24.30;100794.00;;;;2059400;28;20694;-67
2023/06/28 02:44:55;;;;;;;2.40;1.37;;;;;24.30;100790.00;;;;2067596;28;20230;-67
2023/06/28 02:45:55;;;;;;;3.30;1.10;;;;;24.30;100797.00;;;;2058771;28;20222;-67
2023/06/28 02:46:55;;;;;;;1.40;1.00;;;;;24.30;100783.00;;;;2067896;28;20230;-67
2023/06/28 02:47:56;;;;;;;3.93;1.40;;;;;24.30;100769.00;;;;2061258;28;20219;-67
2023/06/28 02:48:56;;;;;;;1.73;0.90;;;;;24.30;100790.00;;;;2057787;28;20251;-67
2023/06/28 02:49:56;;;;;;;1.20;1.10;;;;;24.30;100788.00;;;;2061201;28;20229;-67
2023/06/28 02:50:56;;;;;;;2.33;1.10;;;;;24.30;100786.00;;;;2050765;28;20214;-67
2023/06/28 02:51:57;;;;;;;1.83;1.13;;;;;24.30;100793.00;;;;2063203;28;20653;-67
2023/06/28 02:52:57;;;;;;;2.70;1.37;;;;;24.30;100797.00;;;;2063987;28;20609;-67
2023/06/28 02:53:58;;;;;;;1.73;1.13;;;;;24.30;100798.00;;;;2063349;28;20741;-67
2023/06/28 02:54:58;;;;;;;1.80;1.30;;;;;24.30;100794.00;;;;2067651;28;20572;-67
2023/06/28 02:55:58;;;;;;;2.80;1.27;;;;;24.30;100797.00;;;;2053187;28;20285;-67
2023/06/28 02:56:58;;;;;;;2.30;1.20;;;;;24.30;100796.00;;;;2059387;28;20247;-67
2023/06/28 02:57:59;;;;;;;2.37;1.17;;;;;24.30;100798.00;;;;2059823;28;20234;-67
2023/06/28 02:58:59;;;;;;;3.53;1.17;;;;;24.30;100799.00;;;;2058366;28;20238;-67
2023/06/28 03:00:00;;;;;;;1.63;0.90;;;;;24.30;100795.00;;;;2059417;28;20310;-67
2023/06/28 03:01:00;;;;;;;2.33;1.30;;;;;24.30;100797.00;;;;2047757;28;20222;-66
2023/06/28 03:02:03;;;;;;;2.40;1.13;;;;;24.30;100799.00;;;;2057881;28;20525;-66
2023/06/28 03:03:04;;;;;;;2.08;1.23;;;;;24.30;100797.00;;;;2067013;28;20765;-66
2023/06/28 03:04:04;;;;;;;2.43;1.60;;;;;24.30;100798.00;;;;2062051;28;20215;-66
2023/06/28 03:05:04;;;;;;;2.30;1.10;;;;;24.30;100801.00;;;;2063367;28;20214;-66
2023/06/28 03:06:05;;;;;;;1.60;1.20;;;;;24.30;100799.00;;;;2054376;28;20211;-66
2023/06/28 03:07:07;;;;;;;3.40;1.00;;;;;24.30;100799.00;;;;2064266;28;20269;-66
2023/06/28 03:08:07;;;;;;;2.30;1.05;;;;;24.30;100796.00;;;;2066710;28;20203;-66
2023/06/28 03:09:08;;;;;;;1.60;1.20;;;;;24.30;100801.00;;;;2068107;28;20696;-66
2023/06/28 03:10:08;;;;;;;2.60;1.30;;;;;24.30;100793.00;;;;2063333;28;20203;-66
2023/06/28 03:11:08;;;;;;;1.73;1.27;;;;;24.30;100800.00;;;;2050540;28;20234;-66
2023/06/28 03:12:09;;;;;;;3.17;1.40;;;;;24.20;100793.00;;;;2060515;28;20211;-66
2023/06/28 03:13:10;;;;;;;2.73;1.47;;;;;24.20;100797.00;;;;2063876;28;20211;-66
2023/06/28 03:14:10;;;;;;;1.93;1.10;;;;;24.30;100792.00;;;;2060997;28;20462;-66
2023/06/28 03:15:10;;;;;;;2.30;1.10;;;;;24.30;100800.00;;;;2059949;28;20223;-66
2023/06/28 03:16:11;;;;;;;2.30;1.27;;;;;24.20;100798.00;;;;2047037;28;20298;-66
2023/06/28 03:17:11;;;;;;;1.90;1.30;;;;;24.20;100798.00;;;;2064397;28;20250;-66
2023/06/28 03:18:11;;;;;;;2.30;1.00;;;;;24.20;100798.00;;;;2068373;28;20225;-67
2023/06/28 03:19:12;;;;;;;1.97;1.27;;;;;24.20;100797.00;;;;2063729;28;20216;-67
2023/06/28 03:20:12;;;;;;;1.80;1.03;;;;;24.20;100780.00;;;;2065499;28;20199;-67
2023/06/28 03:21:12;;;;;;;1.00;0.90;;;;;24.20;100802.00;;;;2052303;28;20210;-67
2023/06/28 03:22:13;;;;;;;1.60;1.10;;;;;24.20;100772.00;;;;2057233;28;20223;-67
2023/06/28 03:23:14;;;;;;;3.75;1.42;;;;;24.20;100792.00;;;;2055085;28;20212;-67
2023/06/28 03:24:14;;;;;;;2.17;1.20;;;;;24.20;100797.00;;;;2061981;28;20246;-67
2023/06/28 03:25:15;;;;;;;3.20;1.60;;;;;24.20;100793.00;;;;2067083;28;20214;-67
2023/06/28 03:26:15;;;;;;;1.20;1.00;;;;;24.20;100794.00;;;;2054632;28;20269;-67
2023/06/28 03:27:16;;;;;;;3.53;1.13;;;;;24.30;100799.00;;;;2067574;28;20997;-67
2023/06/28 03:28:16;;;;;;;2.43;1.27;;;;;24.20;100790.00;;;;2063778;28;20203;-67
2023/06/28 03:29:16;;;;;;;1.73;1.20;;;;;24.20;100791.00;;;;2059397;28;20234;-67
2023/06/28 03:30:17;;;;;;;1.80;1.40;;;;;24.20;100790.00;;;;2065665;28;20846;-67
2023/06/28 03:31:17;;;;;;;2.57;1.00;;;;;24.20;100794.00;;;;2044682;28;20699;-67
2023/06/28 03:32:17;;;;;;;2.80;1.30;;;;;24.30;100795.00;;;;2056268;28;20893;-67
2023/06/28 03:33:18;;;;;;;1.80;1.20;;;;;24.20;100795.00;;;;2067430;28;20568;-67
2023/06/28 03:34:18;;;;;;;2.00;1.07;;;;;24.20;100790.00;;;;2058669;28;20691;-67
2023/06/28 03:35:18;;;;;;;2.67;1.30;;;;;24.20;100794.00;;;;2062877;28;22216;-67
2023/06/28 03:36:19;;;;;;;1.50;1.10;;;;;24.20;100799.00;;;;2051418;28;20227;-67
2023/06/28 03:37:19;;;;;;;2.07;1.10;;;;;24.20;100791.00;;;;2063724;28;20226;-67
2023/06/28 03:38:19;;;;;;;2.20;1.20;;;;;24.20;100791.00;;;;2064110;28;20214;-67
2023/06/28 03:39:20;;;;;;;3.47;1.40;;;;;24.30;100800.00;;;;2058459;28;20282;-67
2023/06/28 03:40:20;;;;;;;2.70;1.30;;;;;24.20;100783.00;;;;2061306;28;20643;-67
2023/06/28 03:41:21;;;;;;;1.50;1.03;;;;;24.20;100792.00;;;;2040645;28;20636;-67
2023/06/28 03:42:21;;;;;;;2.83;1.30;;;;;24.30;100790.00;;;;2051709;28;20325;-67
2023/06/28 03:43:21;;;;;;;2.63;1.30;;;;;24.20;100788.00;;;;2066120;28;20218;-67
2023/06/28 03:44:21;;;;;;;1.87;1.50;;;;;24.30;100787.00;;;;2058453;28;20323;-67
2023/06/28 03:45:22;;;;;;;2.13;1.10;;;;;24.20;100787.00;;;;2056194;28;20226;-67
2023/06/28 03:46:22;;;;;;;2.20;1.97;;;;;24.20;100791.00;;;;2052657;28;20229;-67
2023/06/28 03:47:22;;;;;;;1.90;1.33;;;;;24.30;100790.00;;;;2063959;28;20230;-67
2023/06/28 03:48:23;;;;;;;2.30;1.20;;;;;24.30;100782.00;;;;2069289;28;20214;-67
2023/06/28 03:49:23;;;;;;;1.70;1.20;;;;;24.20;100784.00;;;;2061723;28;20234;-67
2023/06/28 03:50:23;;;;;;;1.73;1.37;;;;;24.20;100789.00;;;;2064445;28;20242;-67
2023/06/28 03:51:24;;;;;;;2.57;1.37;;;;;24.20;100786.00;;;;2054568;28;20722;-67
2023/06/28 03:52:24;;;;;;;1.60;1.13;;;;;24.20;100783.00;;;;2055954;28;20235;-67
2023/06/28 03:53:24;;;;;;;1.67;1.20;;;;;24.20;100787.00;;;;2055685;28;20215;-67
2023/06/28 03:54:25;;;;;;;1.40;1.20;;;;;24.20;100782.00;;;;2061020;28;20230;-67
2023/06/28 03:55:25;;;;;;;1.73;1.20;;;;;24.20;100774.00;;;;2056234;28;20216;-67
2023/06/28 03:56:25;;;;;;;1.23;0.90;;;;;24.30;100780.00;;;;2036638;28;20241;-67
2023/06/28 03:57:26;;;;;;;2.50;1.57;;;;;24.20;100747.00;;;;2048043;28;20285;-67
2023/06/28 03:58:26;;;;;;;2.20;1.07;;;;;24.20;100759.00;;;;2047861;28;20532;-67
2023/06/28 03:59:26;;;;;;;2.00;1.20;;;;;24.20;100773.00;;;;2052214;28;20244;-67
2023/06/28 04:00:27;;;;;;;2.40;1.37;;;;;24.20;100765.00;;;;2063052;28;20723;-67
2023/06/28 04:01:27;;;;;;;2.33;1.43;;;;;24.20;100777.00;;;;2053781;28;20331;-67
2023/06/28 04:02:27;;;;;;;2.90;1.63;;;;;24.20;100780.00;;;;2065864;28;20629;-67
2023/06/28 04:03:28;;;;;;;2.00;1.30;;;;;24.20;100777.00;;;;2056397;28;20281;-67
2023/06/28 04:04:28;;;;;;;2.77;1.47;;;;;24.20;100777.00;;;;2065929;28;20213;-67
2023/06/28 04:05:28;;;;;;;2.33;1.40;;;;;24.20;100775.00;;;;2056527;28;20736;-67
2023/06/28 04:06:29;;;;;;;2.60;1.60;;;;;24.20;100777.00;;;;2046243;28;20662;-67
2023/06/28 04:07:29;;;;;;;2.50;1.33;;;;;24.20;100770.00;;;;2062424;28;20679;-67
2023/06/28 04:08:29;;;;;;;2.00;1.43;;;;;24.20;100767.00;;;;2054734;28;21010;-67
2023/06/28 04:09:30;;;;;;;2.40;1.40;;;;;24.20;100778.00;;;;2054398;28;20634;-67
2023/06/28 04:10:30;;;;;;;2.87;1.43;;;;;24.20;100769.00;;;;2058041;28;20963;-67
2023/06/28 04:11:30;;;;;;;1.70;1.20;;;;;24.20;100774.00;;;;2053449;28;20233;-67
2023/06/28 04:12:31;;;;;;;3.47;1.17;;;;;24.20;100768.00;;;;2063815;28;20310;-67
2023/06/28 04:13:31;;;;;;;2.57;1.27;;;;;24.20;100774.00;;;;2063404;28;20218;-67
2023/06/28 04:14:31;;;;;;;3.07;1.43;;;;;24.20;100771.00;;;;2062575;28;20214;-67
2023/06/28 04:15:32;;;;;;;3.30;1.33;;;;;24.20;100772.00;;;;2066144;28;20254;-67
2023/06/28 04:16:32;;;;;;;1.47;1.13;;;;;24.20;100774.00;;;;2050127;28;20218;-67
2023/06/28 04:17:33;;;;;;;1.80;1.33;;;;;24.20;100772.00;;;;2069243;28;20218;-67
2023/06/28 04:18:33;;;;;;;1.80;1.33;;;;;24.20;100768.00;;;;2053732;28;20266;-67
2023/06/28 04:19:34;;;;;;;2.00;1.40;;;;;24.20;100778.00;;;;2046771;28;21180;-67
2023/06/28 04:20:34;;;;;;;2.20;1.17;;;;;24.20;100779.00;;;;2062586;28;20698;-67
2023/06/28 04:21:34;;;;;;;2.40;1.30;;;;;24.20;100778.00;;;;2054238;28;20717;-67
2023/06/28 04:22:34;;;;;;;2.60;1.60;;;;;24.20;100784.00;;;;2069945;28;20310;-67
2023/06/28 04:23:35;;;;;;;3.13;1.43;;;;;24.20;100785.00;;;;2059046;28;20695;-67
2023/06/28 04:24:35;;;;;;;1.70;1.20;;;;;24.20;100778.00;;;;2055981;28;20719;-67
2023/06/28 04:25:37;;;;;;;2.87;1.23;;;;;24.20;100778.00;;;;2062455;28;20705;-67
2023/06/28 04:26:37;;;;;;;2.20;1.10;;;;;24.20;100773.00;;;;2053379;28;20211;-67
2023/06/28 04:27:37;;;;;;;1.70;1.20;;;;;24.20;100781.00;;;;2068242;28;20809;-67
2023/06/28 04:28:38;;;;;;;1.87;1.07;;;;;24.20;100782.00;;;;2061403;28;20671;-67
2023/06/28 04:29:38;;;;;;;4.83;1.93;;;;;24.20;100784.00;;;;2052874;28;20390;-67
2023/06/28 04:30:38;;;;;;;2.67;1.27;;;;;24.20;100782.00;;;;2059898;28;20214;-67
2023/06/28 04:31:39;;;;;;;3.47;1.40;;;;;24.20;100785.00;;;;2049034;28;20254;-67
2023/06/28 04:32:39;;;;;;;1.93;1.40;;;;;24.20;100786.00;;;;2067537;28;20219;-67
2023/06/28 04:33:39;;;;;;;2.20;0.97;;;;;24.20;100781.00;;;;2066529;28;20222;-67
2023/06/28 04:34:40;;;;;;;1.83;1.40;;;;;24.20;100776.00;;;;2069533;28;20248;-67
2023/06/28 04:35:42;;;;;;;2.00;1.20;;;;;24.20;100787.00;;;;2061543;28;20639;-67
2023/06/28 04:36:43;;;;;;;1.52;1.20;;;;;24.20;100778.00;;;;2049989;28;20218;-67
2023/06/28 04:37:44;;;;;;;2.10;1.40;;;;;24.20;100784.00;;;;2057994;28;20211;-67
2023/06/28 04:38:44;;;;;;;2.63;1.27;;;;;24.20;100779.00;;;;2066059;28;20219;-67
2023/06/28 04:39:44;;;;;;;2.43;1.33;;;;;24.20;100788.00;;;;2056444;28;20235;-67
2023/06/28 04:40:45;;;;;;;2.40;1.53;;;;;24.20;100787.00;;;;2061624;28;20210;-67
2023/06/28 04:41:45;;;;;;;2.40;1.50;;;;;24.20;100790.00;;;;2049219;28;20215;-67
2023/06/28 04:42:46;;;;;;;2.30;1.47;;;;;24.30;100788.00;;;;2061810;28;20223;-67
2023/06/28 04:43:46;;;;;;;2.07;1.40;;;;;24.20;100783.00;;;;2067380;28;20217;-67
2023/06/28 04:44:50;;;;;;;2.63;1.47;;;;;24.30;100776.00;;;;2059518;28;20218;-67
2023/06/28 04:45:50;;;;;;;1.55;1.30;;;;;24.30;100788.00;;;;2064911;28;20222;-67
2023/06/28 04:46:51;;;;;;;2.40;1.40;;;;;24.30;100791.00;;;;2051405;28;20268;-67
2023/06/28 04:47:52;;;;;;;2.33;1.50;;;;;24.30;100784.00;;;;2062499;28;20219;-67
2023/06/28 04:48:53;;;;;;;2.63;1.30;;;;;24.20;100790.00;;;;2065475;28;20206;-67
2023/06/28 04:49:54;;;;;;;2.37;1.17;;;;;24.30;100781.00;;;;2058855;28;20705;-67
2023/06/28 04:50:54;;;;;;;2.55;1.30;;;;;24.30;100789.00;;;;2053463;28;20575;-67
2023/06/28 04:51:56;;;;;;;2.50;1.73;;;;;24.30;100779.00;;;;2056018;28;20219;-67
2023/06/28 04:52:56;;;;;;;3.28;1.50;;;;;24.20;100781.00;;;;2055805;28;20266;-67
2023/06/28 04:53:58;;;;;;;2.70;1.30;;;;;24.20;100776.00;;;;2057182;28;20748;-67
2023/06/28 04:54:59;;;;;;;2.45;1.30;;;;;24.20;100779.00;;;;2062953;28;20218;-67
2023/06/28 04:56:02;;;;;;;2.37;1.43;;;;;24.20;100777.00;;;;2053879;28;20240;-67
2023/06/28 04:57:03;;;;;;;1.42;1.25;;;;;24.30;100775.00;;;;2058547;28;20247;-67
2023/06/28 04:58:04;;;;;;;3.55;1.33;;;;;24.30;100769.00;;;;2059015;28;20589;-67
2023/06/28 04:59:05;;;;;;;1.45;1.10;;;;;24.30;100778.00;;;;2061663;28;20238;-67